Time;durP1;ratioP1;P1;durP2;ratioP2;P2;SDS_P1;SDS_P2;PMS_P1;PMS_P2;Temp;Humidity;BMP_temperature;BMP_pressure;BME280_temperature;BME280_humidity;BME280_pressure;Samples;Min_cycle;Max_cycle;Signal;HPM_P1;HPM_P2
2022/09/04 00:00:22;;;;;;;2.30;1.83;;;19.00;99.90;;;;;;2568130;23;20008;-70
2022/09/04 00:01:40;;;;;;;2.17;2.05;;;19.00;99.90;;;;;;2567777;23;20009;-70
2022/09/04 00:03:20;;;;;;;1.73;1.63;;;19.00;99.90;;;;;;2567713;23;20329;-70
2022/09/04 00:04:39;;;;;;;2.05;1.90;;;18.90;99.90;;;;;;2566555;23;20008;-70
2022/09/04 00:05:54;;;;;;;2.25;2.10;;;18.90;99.90;;;;;;2568125;23;20008;-70
2022/09/04 00:07:21;;;;;;;1.98;1.85;;;18.80;99.90;;;;;;2568114;23;20300;-70
2022/09/04 00:08:49;;;;;;;1.80;1.70;;;18.80;99.90;;;;;;2567974;23;20000;-70
2022/09/04 00:10:10;;;;;;;2.92;1.95;;;18.80;99.90;;;;;;2567989;23;20024;-70
2022/09/04 00:11:17;;;;;;;1.67;1.58;;;18.80;99.90;;;;;;2567910;23;20064;-70
2022/09/04 00:12:24;;;;;;;1.90;1.80;;;18.80;99.90;;;;;;2568159;23;20004;-70
2022/09/04 00:13:41;;;;;;;2.25;2.05;;;18.80;99.90;;;;;;2567432;23;20009;-70
2022/09/04 00:14:51;;;;;;;2.10;1.88;;;18.70;99.90;;;;;;2567768;23;20499;-70
2022/09/04 00:15:56;;;;;;;1.85;1.70;;;18.70;99.90;;;;;;2567517;23;20054;-70
2022/09/04 00:17:02;;;;;;;4.00;1.92;;;18.70;99.90;;;;;;2568089;23;20001;-70
2022/09/04 00:18:12;;;;;;;2.03;1.90;;;18.70;99.90;;;;;;2567737;23;20316;-70
2022/09/04 00:19:25;;;;;;;2.05;1.95;;;18.70;99.90;;;;;;2567725;23;20063;-69
2022/09/04 00:20:36;;;;;;;2.42;2.17;;;18.70;99.90;;;;;;2568028;23;20011;-69
2022/09/04 00:21:52;;;;;;;1.90;1.80;;;18.70;99.90;;;;;;2567621;23;20016;-69
2022/09/04 00:23:20;;;;;;;2.38;2.17;;;18.70;99.90;;;;;;2567881;23;20008;-70
2022/09/04 00:24:43;;;;;;;2.00;1.90;;;18.70;99.90;;;;;;2567804;23;20004;-70
2022/09/04 00:26:20;;;;;;;2.10;1.90;;;18.60;99.90;;;;;;2567830;23;20008;-69
2022/09/04 00:27:25;;;;;;;2.00;1.83;;;18.60;99.90;;;;;;2567758;23;20084;-69
2022/09/04 00:28:45;;;;;;;1.95;1.77;;;18.50;99.90;;;;;;2567755;23;20001;-69
2022/09/04 00:30:07;;;;;;;2.20;2.08;;;18.50;99.90;;;;;;2567343;23;20004;-69
2022/09/04 00:31:13;;;;;;;1.60;1.50;;;18.60;99.90;;;;;;2567926;23;20008;-69
2022/09/04 00:32:37;;;;;;;2.10;1.90;;;18.50;99.90;;;;;;2568127;23;20001;-69
2022/09/04 00:33:52;;;;;;;1.73;1.63;;;18.50;99.90;;;;;;2567543;23;20007;-69
2022/09/04 00:35:14;;;;;;;1.92;1.80;;;18.50;99.90;;;;;;2567518;23;20074;-69
2022/09/04 00:36:16;;;;;;;2.10;1.90;;;18.50;99.90;;;;;;2567783;23;20004;-70
2022/09/04 00:37:22;;;;;;;2.15;1.95;;;18.40;99.90;;;;;;2567902;23;20000;-70
2022/09/04 00:38:28;;;;;;;2.20;1.88;;;18.40;99.90;;;;;;2567703;23;20123;-70
2022/09/04 00:39:42;;;;;;;2.08;1.95;;;18.40;99.90;;;;;;2567844;23;20448;-70
2022/09/04 00:40:51;;;;;;;1.92;1.83;;;18.40;99.90;;;;;;2567607;23;20001;-70
2022/09/04 00:42:04;;;;;;;2.08;1.90;;;18.40;99.90;;;;;;2568165;23;20035;-70
2022/09/04 00:43:28;;;;;;;1.70;1.60;;;18.40;99.90;;;;;;2567542;23;20004;-70
2022/09/04 00:44:55;;;;;;;2.10;1.90;;;18.40;99.90;;;;;;2567628;23;20024;-70
2022/09/04 00:46:19;;;;;;;3.25;1.75;;;18.40;99.90;;;;;;2567593;23;20001;-70
2022/09/04 00:48:02;;;;;;;1.70;1.60;;;18.30;99.90;;;;;;2567881;23;20008;-70
2022/09/04 00:49:44;;;;;;;1.80;1.70;;;18.30;99.90;;;;;;2567561;23;20004;-70
2022/09/04 00:51:14;;;;;;;2.08;1.85;;;18.30;99.90;;;;;;2566884;23;20001;-70
2022/09/04 00:52:56;;;;;;;2.30;1.80;;;18.20;99.90;;;;;;2522297;23;20105;-69
2022/09/04 00:54:08;;;;;;;2.10;1.90;;;18.20;99.90;;;;;;2517017;23;20022;-70
2022/09/04 00:55:43;;;;;;;1.75;1.65;;;18.20;99.90;;;;;;2555406;23;20048;-70
2022/09/04 00:57:14;;;;;;;2.47;2.17;;;18.20;99.90;;;;;;2555457;23;20009;-69
2022/09/04 00:58:45;;;;;;;2.25;1.77;;;18.20;99.90;;;;;;2542055;23;20373;-69
2022/09/04 01:00:07;;;;;;;1.85;1.75;;;18.20;99.90;;;;;;2549077;23;20326;-69
2022/09/04 01:01:12;;;;;;;1.92;1.63;;;18.10;99.90;;;;;;2555201;23;20005;-69
2022/09/04 01:02:16;;;;;;;3.25;1.70;;;18.10;99.90;;;;;;2555541;23;20443;-69
2022/09/04 01:03:29;;;;;;;1.98;1.88;;;18.10;99.90;;;;;;2554754;23;20067;-69
2022/09/04 01:04:45;;;;;;;2.22;1.90;;;18.10;99.90;;;;;;2555241;23;20276;-69
2022/09/04 01:06:11;;;;;;;1.75;1.60;;;18.10;99.90;;;;;;2555022;23;20105;-69
2022/09/04 01:07:44;;;;;;;2.55;1.85;;;18.10;99.90;;;;;;2555457;23;20386;-70
2022/09/04 01:09:09;;;;;;;1.77;1.67;;;18.00;99.90;;;;;;2555282;23;19997;-70
2022/09/04 01:10:28;;;;;;;1.70;1.55;;;18.00;99.90;;;;;;2555479;23;20052;-70
2022/09/04 01:11:32;;;;;;;1.90;1.80;;;18.00;99.90;;;;;;2555353;23;20008;-70
2022/09/04 01:13:05;;;;;;;2.13;1.80;;;18.00;99.90;;;;;;2554889;23;20041;-70
2022/09/04 01:14:28;;;;;;;1.83;1.70;;;18.00;99.90;;;;;;2554785;23;20009;-70
2022/09/04 01:15:40;;;;;;;1.65;1.55;;;18.00;99.90;;;;;;2555269;23;20051;-70
2022/09/04 01:16:49;;;;;;;1.80;1.70;;;17.90;99.90;;;;;;2555242;23;20007;-70
2022/09/04 01:18:01;;;;;;;1.80;1.70;;;18.00;99.90;;;;;;2555264;23;20001;-70
2022/09/04 01:19:20;;;;;;;1.70;1.60;;;18.00;99.90;;;;;;2555317;23;20012;-69
2022/09/04 01:20:45;;;;;;;3.80;1.90;;;18.00;99.90;;;;;;2555145;23;20012;-69
2022/09/04 01:22:18;;;;;;;1.77;1.55;;;17.90;99.90;;;;;;2554939;23;20012;-69
2022/09/04 01:23:32;;;;;;;1.77;1.67;;;17.90;99.90;;;;;;2554672;23;20001;-69
2022/09/04 01:24:57;;;;;;;1.90;1.80;;;17.90;99.90;;;;;;2555346;23;20085;-69
2022/09/04 01:26:23;;;;;;;1.67;1.58;;;17.90;99.90;;;;;;2554840;23;20005;-69
2022/09/04 01:27:31;;;;;;;1.80;1.70;;;17.90;99.90;;;;;;2555399;23;20009;-69
2022/09/04 01:28:41;;;;;;;1.73;1.63;;;17.90;99.90;;;;;;2555507;23;20008;-70
2022/09/04 01:29:55;;;;;;;;;;;17.80;99.90;;;;;;2555609;23;19993;-70
2022/09/04 01:31:26;;;;;;;2.22;1.80;;;17.80;99.90;;;;;;2555232;23;19904;-70
2022/09/04 01:33:00;;;;;;;1.83;1.70;;;17.80;99.90;;;;;;2555328;23;20024;-70
2022/09/04 01:34:28;;;;;;;1.90;1.80;;;17.80;99.90;;;;;;2555478;23;20038;-69
2022/09/04 01:35:51;;;;;;;3.63;2.00;;;17.80;99.90;;;;;;2555566;23;20016;-69
2022/09/04 01:37:16;;;;;;;2.88;2.10;;;17.70;99.90;;;;;;2555193;23;20008;-69
2022/09/04 01:38:26;;;;;;;2.08;1.98;;;17.70;99.90;;;;;;2554897;23;20009;-69
2022/09/04 01:39:30;;;;;;;2.00;1.90;;;17.70;99.90;;;;;;2555243;23;20032;-69
2022/09/04 01:40:46;;;;;;;2.28;2.10;;;17.70;99.90;;;;;;2555205;23;20012;-69
2022/09/04 01:42:00;;;;;;;2.35;2.13;;;17.70;99.90;;;;;;2542162;23;20508;-69
2022/09/04 01:43:12;;;;;;;2.55;2.10;;;17.70;99.90;;;;;;2544661;23;20073;-70
2022/09/04 01:44:13;;;;;;;2.05;1.67;;;17.70;99.90;;;;;;2555191;23;20016;-70
2022/09/04 01:45:22;;;;;;;2.25;2.05;;;17.70;99.90;;;;;;2555547;23;20004;-70
2022/09/04 01:46:45;;;;;;;3.03;1.80;;;17.70;99.90;;;;;;2555144;23;20077;-70
2022/09/04 01:47:50;;;;;;;2.47;1.92;;;17.70;99.90;;;;;;2555082;23;20077;-69
2022/09/04 01:49:10;;;;;;;2.00;1.80;;;17.70;99.90;;;;;;2554519;23;19993;-69
2022/09/04 01:50:18;;;;;;;1.75;1.65;;;17.70;99.90;;;;;;2555459;23;19993;-69
2022/09/04 01:51:44;;;;;;;2.97;2.58;;;17.70;99.90;;;;;;2542469;23;20477;-69
2022/09/04 01:52:48;;;;;;;2.97;2.10;;;17.70;99.90;;;;;;2556925;23;20004;-69
2022/09/04 01:54:34;;;;;;;2.65;1.98;;;17.60;99.90;;;;;;2567186;23;19996;-69
2022/09/04 01:55:37;;;;;;;1.75;1.55;;;17.60;99.90;;;;;;2517393;23;20002;-69
2022/09/04 01:56:56;;;;;;;2.28;2.10;;;17.60;99.90;;;;;;2517258;23;20022;-69
2022/09/04 01:58:17;;;;;;;2.28;2.08;;;17.60;99.90;;;;;;2538835;23;20005;-69
2022/09/04 01:59:51;;;;;;;2.28;2.00;;;17.60;99.90;;;;;;2567627;23;20015;-69
2022/09/04 02:01:10;;;;;;;2.25;2.05;;;17.50;99.90;;;;;;2566632;23;20005;-69
2022/09/04 02:02:27;;;;;;;1.90;1.80;;;17.50;99.90;;;;;;2567938;23;20009;-69
2022/09/04 02:04:06;;;;;;;2.10;1.98;;;17.50;99.90;;;;;;2567430;23;20005;-69
2022/09/04 02:05:28;;;;;;;2.08;1.98;;;17.50;99.90;;;;;;2517187;23;20010;-69
2022/09/04 02:06:32;;;;;;;2.00;1.90;;;17.50;99.90;;;;;;2505624;23;20011;-69
2022/09/04 02:07:55;;;;;;;2.00;1.90;;;17.50;99.90;;;;;;2531969;23;20274;-69
2022/09/04 02:09:04;;;;;;;2.13;2.03;;;17.50;99.90;;;;;;2546649;23;20001;-69
2022/09/04 02:10:13;;;;;;;2.33;2.22;;;17.40;99.90;;;;;;2556309;23;20028;-69
2022/09/04 02:11:21;;;;;;;2.38;2.17;;;17.40;99.90;;;;;;2567877;23;20321;-69
2022/09/04 02:12:27;;;;;;;3.72;2.10;;;17.40;99.90;;;;;;2568003;23;20005;-69
2022/09/04 02:13:39;;;;;;;2.80;2.30;;;17.40;99.90;;;;;;2566681;23;20051;-69
2022/09/04 02:14:55;;;;;;;1.98;1.88;;;17.40;99.90;;;;;;2567799;23;20046;-69
2022/09/04 02:16:14;;;;;;;5.75;2.00;;;17.40;99.90;;;;;;2567382;23;20000;-69
2022/09/04 02:17:44;;;;;;;3.08;2.47;;;17.40;99.90;;;;;;2567497;23;20073;-69
2022/09/04 02:19:00;;;;;;;2.00;1.90;;;17.30;99.90;;;;;;2563911;23;20417;-69
2022/09/04 02:20:07;;;;;;;2.40;2.28;;;17.30;99.90;;;;;;2567615;23;20434;-69
2022/09/04 02:21:26;;;;;;;2.15;2.00;;;17.30;99.90;;;;;;2567448;23;20051;-69
2022/09/04 02:22:30;;;;;;;2.53;2.33;;;17.30;99.90;;;;;;2568521;23;20015;-69
2022/09/04 02:23:53;;;;;;;2.30;2.10;;;17.30;99.90;;;;;;2568114;23;20321;-69
2022/09/04 02:25:09;;;;;;;3.95;2.38;;;17.30;99.90;;;;;;2567707;23;20135;-69
2022/09/04 02:26:13;;;;;;;2.22;2.03;;;17.30;99.90;;;;;;2568563;23;20024;-69
2022/09/04 02:27:19;;;;;;;2.72;2.45;;;17.30;99.90;;;;;;2568504;23;20004;-70
2022/09/04 02:28:29;;;;;;;3.83;2.10;;;17.20;99.90;;;;;;2568497;23;20004;-69
2022/09/04 02:29:38;;;;;;;2.80;2.60;;;17.30;99.90;;;;;;2553588;23;20088;-69
2022/09/04 02:31:11;;;;;;;2.85;2.00;;;17.20;99.90;;;;;;2556866;23;20492;-69
2022/09/04 02:32:36;;;;;;;2.28;1.75;;;17.20;99.90;;;;;;2556629;23;20977;-69
2022/09/04 02:33:44;;;;;;;2.85;1.95;;;17.20;99.90;;;;;;2567780;23;19997;-69
2022/09/04 02:35:23;;;;;;;2.38;2.17;;;17.20;99.90;;;;;;2554987;23;20056;-69
2022/09/04 02:36:33;;;;;;;2.17;1.98;;;17.20;99.90;;;;;;2562779;23;20036;-69
2022/09/04 02:37:42;;;;;;;2.53;2.30;;;17.20;99.90;;;;;;2568710;23;20004;-69
2022/09/04 02:39:10;;;;;;;2.05;1.95;;;17.20;99.90;;;;;;2568498;23;20084;-69
2022/09/04 02:40:30;;;;;;;2.10;2.00;;;17.20;99.90;;;;;;2568635;23;20320;-69
2022/09/04 02:42:18;;;;;;;3.00;2.47;;;17.10;99.90;;;;;;2568372;23;20008;-69
2022/09/04 02:43:34;;;;;;;2.63;2.42;;;17.10;99.90;;;;;;2557180;23;20071;-69
2022/09/04 02:45:02;;;;;;;2.53;2.33;;;17.10;99.90;;;;;;2567937;23;20344;-69
2022/09/04 02:46:08;;;;;;;2.22;2.13;;;17.10;99.90;;;;;;2568262;23;20071;-69
2022/09/04 02:47:21;;;;;;;2.53;2.33;;;17.10;99.90;;;;;;2568620;23;20035;-69
2022/09/04 02:48:46;;;;;;;2.20;2.00;;;17.10;99.90;;;;;;2568577;23;20008;-69
2022/09/04 02:50:29;;;;;;;2.05;1.90;;;17.10;99.90;;;;;;2568430;23;20303;-69
2022/09/04 02:51:49;;;;;;;2.45;2.22;;;17.00;99.90;;;;;;2521244;23;20430;-69
2022/09/04 02:53:28;;;;;;;2.70;2.50;;;17.00;99.90;;;;;;2568060;23;20827;-69
2022/09/04 02:54:43;;;;;;;2.83;2.13;;;17.00;99.90;;;;;;2517972;23;20637;-69
2022/09/04 02:55:51;;;;;;;3.03;2.28;;;17.00;99.90;;;;;;2554949;23;20032;-69
2022/09/04 02:57:10;;;;;;;2.55;2.35;;;17.00;99.90;;;;;;2567639;23;20909;-69
2022/09/04 02:58:31;;;;;;;2.53;2.10;;;17.00;99.90;;;;;;2568448;23;20009;-69
2022/09/04 02:59:34;;;;;;;2.40;2.20;;;16.90;99.90;;;;;;2568146;23;20005;-69
2022/09/04 03:00:45;;;;;;;2.35;2.20;;;16.90;99.90;;;;;;2568101;23;19996;-69
2022/09/04 03:01:59;;;;;;;2.47;2.28;;;16.90;99.90;;;;;;2568084;23;20000;-69
2022/09/04 03:03:13;;;;;;;2.38;2.28;;;16.90;99.90;;;;;;2567883;23;20326;-69
2022/09/04 03:04:32;;;;;;;6.07;2.65;;;16.90;99.90;;;;;;2568483;23;20067;-69
2022/09/04 03:05:40;;;;;;;2.60;2.40;;;16.90;99.90;;;;;;2568134;23;20005;-69
2022/09/04 03:06:47;;;;;;;2.20;2.10;;;16.90;99.90;;;;;;2568326;23;20072;-69
2022/09/04 03:08:05;;;;;;;2.42;2.22;;;16.90;99.90;;;;;;2568566;23;19997;-69
2022/09/04 03:09:12;;;;;;;2.53;2.03;;;16.90;99.90;;;;;;2568454;23;20051;-69
2022/09/04 03:10:25;;;;;;;2.20;2.00;;;16.90;99.90;;;;;;2568604;23;20008;-70
2022/09/04 03:11:42;;;;;;;3.53;2.80;;;16.90;99.90;;;;;;2568051;23;20004;-70
2022/09/04 03:13:02;;;;;;;2.17;1.98;;;16.90;99.90;;;;;;2568219;23;20028;-70
2022/09/04 03:14:25;;;;;;;2.17;2.08;;;16.90;99.90;;;;;;2568316;23;20004;-70
2022/09/04 03:15:44;;;;;;;2.53;2.33;;;16.90;99.90;;;;;;2568451;23;20425;-70
2022/09/04 03:16:54;;;;;;;4.43;2.47;;;16.80;99.90;;;;;;2568203;23;19996;-70
2022/09/04 03:18:29;;;;;;;4.20;2.38;;;16.80;99.90;;;;;;2555110;23;20087;-70
2022/09/04 03:19:49;;;;;;;2.75;2.40;;;16.80;99.90;;;;;;2512455;23;20022;-70
2022/09/04 03:21:09;;;;;;;2.22;2.03;;;16.80;99.90;;;;;;2527898;23;20399;-70
2022/09/04 03:22:17;;;;;;;2.33;2.22;;;16.80;99.90;;;;;;2567581;23;20008;-70
2022/09/04 03:23:27;;;;;;;2.70;2.50;;;16.80;99.90;;;;;;2568063;23;20522;-70
2022/09/04 03:25:04;;;;;;;3.13;2.92;;;16.80;99.90;;;;;;2568238;23;20348;-70
2022/09/04 03:26:23;;;;;;;2.30;2.20;;;16.80;99.90;;;;;;2554490;23;20005;-70
2022/09/04 03:27:26;;;;;;;3.95;2.55;;;16.70;99.90;;;;;;2561671;23;20011;-70
2022/09/04 03:28:59;;;;;;;2.95;2.45;;;16.70;99.90;;;;;;2568080;23;20367;-70
2022/09/04 03:30:10;;;;;;;2.58;2.38;;;16.70;99.90;;;;;;2568196;23;20005;-70
2022/09/04 03:31:27;;;;;;;2.60;2.40;;;16.70;99.90;;;;;;2568422;23;20004;-70
2022/09/04 03:32:38;;;;;;;2.42;2.28;;;16.70;99.90;;;;;;2554708;23;20001;-70
2022/09/04 03:33:45;;;;;;;2.58;2.38;;;16.70;99.90;;;;;;2554541;23;20001;-70
2022/09/04 03:35:22;;;;;;;2.38;2.20;;;16.70;99.90;;;;;;2556495;23;20301;-70
2022/09/04 03:36:38;;;;;;;2.90;2.70;;;16.70;99.90;;;;;;2567957;23;19997;-69
2022/09/04 03:37:51;;;;;;;2.60;2.40;;;16.70;99.90;;;;;;2568012;23;20004;-69
2022/09/04 03:39:11;;;;;;;3.05;2.75;;;16.60;99.90;;;;;;2567786;23;20332;-70
2022/09/04 03:40:27;;;;;;;2.53;2.42;;;16.70;99.90;;;;;;2568424;23;20341;-70
2022/09/04 03:41:42;;;;;;;2.92;2.70;;;16.60;99.90;;;;;;2568142;23;20299;-70
2022/09/04 03:43:15;;;;;;;2.83;2.53;;;16.60;99.90;;;;;;2567953;23;19992;-70
2022/09/04 03:44:21;;;;;;;3.17;2.60;;;16.60;99.90;;;;;;2526822;23;20077;-70
2022/09/04 03:45:42;;;;;;;3.13;2.83;;;16.60;99.90;;;;;;2568071;23;20075;-70
2022/09/04 03:47:07;;;;;;;2.80;2.60;;;16.60;99.90;;;;;;2568521;23;19997;-70
2022/09/04 03:48:14;;;;;;;2.53;2.33;;;16.60;99.90;;;;;;2568401;23;20008;-70
2022/09/04 03:49:26;;;;;;;3.08;2.65;;;16.60;99.90;;;;;;2567768;23;20080;-70
2022/09/04 03:50:47;;;;;;;3.00;2.80;;;16.60;99.90;;;;;;2568310;23;20444;-70
2022/09/04 03:52:00;;;;;;;2.90;2.70;;;16.60;99.90;;;;;;2568123;23;19996;-70
2022/09/04 03:53:17;;;;;;;2.72;2.53;;;16.60;99.90;;;;;;2567265;23;20027;-70
2022/09/04 03:54:31;;;;;;;3.15;2.85;;;16.60;99.90;;;;;;2567824;23;20014;-70
2022/09/04 03:55:39;;;;;;;4.05;2.97;;;16.60;99.90;;;;;;2567764;23;20005;-70
2022/09/04 03:56:59;;;;;;;4.00;3.00;;;16.50;99.90;;;;;;2567918;23;20001;-70
2022/09/04 03:58:13;;;;;;;4.10;2.90;;;16.50;99.90;;;;;;2568150;23;20001;-70
2022/09/04 03:59:34;;;;;;;3.42;2.45;;;16.50;99.90;;;;;;2554924;23;20433;-70
2022/09/04 04:00:55;;;;;;;4.20;3.17;;;16.50;99.90;;;;;;2559433;23;20068;-70
2022/09/04 04:02:09;;;;;;;2.75;2.55;;;16.50;99.90;;;;;;2568086;23;20011;-70
2022/09/04 04:03:44;;;;;;;3.67;2.67;;;16.50;99.90;;;;;;2567710;23;20047;-70
2022/09/04 04:05:14;;;;;;;3.08;2.78;;;16.50;99.90;;;;;;2568060;23;20447;-70
2022/09/04 04:06:37;;;;;;;3.50;3.08;;;16.50;99.90;;;;;;2567927;23;19996;-70
2022/09/04 04:07:40;;;;;;;3.97;2.63;;;16.50;99.90;;;;;;2554793;23;20430;-70
2022/09/04 04:09:02;;;;;;;2.97;2.30;;;16.50;99.90;;;;;;2555195;23;20005;-70
2022/09/04 04:10:20;;;;;;;2.50;2.30;;;16.50;99.90;;;;;;2567796;23;20005;-70
2022/09/04 04:11:44;;;;;;;2.92;2.65;;;16.50;99.90;;;;;;2567173;23;20033;-70
2022/09/04 04:13:26;;;;;;;3.00;2.80;;;16.50;99.90;;;;;;2567931;23;20317;-70
2022/09/04 04:14:50;;;;;;;5.30;2.50;;;16.40;99.90;;;;;;2567471;23;20009;-70
2022/09/04 04:16:00;;;;;;;3.42;3.13;;;16.40;99.90;;;;;;2567995;23;20001;-70
2022/09/04 04:17:15;;;;;;;3.30;2.80;;;16.40;99.90;;;;;;2568056;23;20076;-70
2022/09/04 04:18:36;;;;;;;3.05;2.85;;;16.40;99.90;;;;;;2567495;23;20071;-70
2022/09/04 04:19:43;;;;;;;3.03;2.83;;;16.40;99.90;;;;;;2568112;23;20375;-70
2022/09/04 04:21:12;;;;;;;3.15;2.85;;;16.30;99.90;;;;;;2567416;23;20008;-70
2022/09/04 04:22:41;;;;;;;3.03;2.70;;;16.40;99.90;;;;;;2568226;23;20401;-70
2022/09/04 04:24:05;;;;;;;3.10;2.80;;;16.30;99.90;;;;;;2567452;23;20325;-70
2022/09/04 04:25:12;;;;;;;3.60;2.70;;;16.30;99.90;;;;;;2568023;23;20001;-70
2022/09/04 04:26:39;;;;;;;4.10;2.63;;;16.30;99.90;;;;;;2567717;23;19997;-71
2022/09/04 04:27:54;;;;;;;3.50;3.20;;;16.30;99.90;;;;;;2568132;23;20031;-69
2022/09/04 04:29:07;;;;;;;5.35;2.85;;;16.30;99.90;;;;;;2568191;23;20441;-69
2022/09/04 04:30:13;;;;;;;2.65;2.45;;;16.30;99.90;;;;;;2568207;23;20051;-69
2022/09/04 04:31:29;;;;;;;3.35;3.08;;;16.30;99.90;;;;;;2568066;23;20429;-69
2022/09/04 04:33:01;;;;;;;2.80;2.60;;;16.30;99.90;;;;;;2567833;23;20360;-69
2022/09/04 04:34:22;;;;;;;3.60;3.30;;;16.20;99.90;;;;;;2567983;23;20411;-69
2022/09/04 04:35:33;;;;;;;4.13;2.65;;;16.20;99.90;;;;;;2567736;23;20009;-69
2022/09/04 04:36:46;;;;;;;3.60;2.75;;;16.20;99.90;;;;;;2554662;23;20477;-69
2022/09/04 04:37:59;;;;;;;3.50;3.20;;;16.20;99.90;;;;;;2558731;23;20332;-69
2022/09/04 04:39:36;;;;;;;3.10;2.90;;;16.20;99.90;;;;;;2567687;23;20444;-69
2022/09/04 04:41:01;;;;;;;2.70;2.50;;;16.20;99.90;;;;;;2551761;23;20314;-69
2022/09/04 04:42:24;;;;;;;2.65;2.45;;;16.20;99.90;;;;;;2554643;23;20009;-69
2022/09/04 04:43:32;;;;;;;2.70;2.50;;;16.20;99.90;;;;;;2559186;23;20094;-69
2022/09/04 04:47:08;;;;;;;3.88;2.75;;;16.10;99.90;;;;;;2568117;23;20004;-69
2022/09/04 04:48:13;;;;;;;3.03;2.83;;;16.10;99.90;;;;;;2568042;23;20007;-69
2022/09/04 04:49:31;;;;;;;3.25;2.88;;;16.10;99.90;;;;;;2567785;23;20059;-69
2022/09/04 04:50:53;;;;;;;2.67;2.47;;;16.10;99.90;;;;;;2567489;23;20004;-69
2022/09/04 04:52:37;;;;;;;3.15;2.95;;;16.10;99.90;;;;;;2568152;23;20013;-69
2022/09/04 04:54:01;;;;;;;3.47;3.03;;;16.10;99.90;;;;;;2554577;23;20199;-69
2022/09/04 04:55:10;;;;;;;3.88;3.20;;;16.10;99.90;;;;;;2555651;23;20037;-69
2022/09/04 04:56:21;;;;;;;3.67;3.05;;;16.10;99.90;;;;;;2555673;23;20004;-69
2022/09/04 04:57:46;;;;;;;3.20;2.90;;;16.10;99.90;;;;;;2555503;23;20024;-69
2022/09/04 04:59:01;;;;;;;3.58;3.28;;;16.10;99.90;;;;;;2555261;23;20015;-69
2022/09/04 05:00:31;;;;;;;4.10;2.83;;;16.10;99.90;;;;;;2554982;23;20424;-69
2022/09/04 05:01:49;;;;;;;3.38;2.72;;;16.10;99.90;;;;;;2555484;23;20013;-69
2022/09/04 05:03:14;;;;;;;2.92;2.72;;;16.10;99.90;;;;;;2542504;23;20002;-69
2022/09/04 05:04:44;;;;;;;3.22;2.92;;;16.10;99.90;;;;;;2547636;23;20001;-69
2022/09/04 05:05:55;;;;;;;3.40;3.13;;;16.10;99.90;;;;;;2555020;23;20007;-69
2022/09/04 05:06:58;;;;;;;2.90;2.70;;;16.10;99.90;;;;;;2555448;23;20011;-69
2022/09/04 05:08:13;;;;;;;4.05;3.38;;;16.10;99.90;;;;;;2555433;23;20001;-69
2022/09/04 05:09:41;;;;;;;3.08;2.88;;;16.10;99.90;;;;;;2555095;23;20443;-69
2022/09/04 05:10:55;;;;;;;3.90;2.90;;;16.10;99.90;;;;;;2541986;23;20006;-69
2022/09/04 05:12:05;;;;;;;3.47;2.75;;;16.10;99.90;;;;;;2544983;23;20390;-69
2022/09/04 05:13:36;;;;;;;3.50;3.03;;;16.10;99.90;;;;;;2541736;23;20013;-69
2022/09/04 05:15:05;;;;;;;3.13;2.85;;;16.10;99.90;;;;;;2548864;23;20001;-69
2022/09/04 05:16:53;;;;;;;3.45;2.92;;;16.10;99.90;;;;;;2555201;23;20460;-69
2022/09/04 05:18:17;;;;;;;5.57;3.40;;;16.10;99.90;;;;;;2505337;23;20026;-69
2022/09/04 05:19:31;;;;;;;3.50;3.20;;;16.10;99.90;;;;;;2493340;23;20002;-69
2022/09/04 05:20:47;;;;;;;4.28;3.05;;;16.10;99.90;;;;;;2530779;23;20509;-69
2022/09/04 05:22:17;;;;;;;2.72;2.53;;;16.10;99.90;;;;;;2545241;23;20009;-69
2022/09/04 05:23:26;;;;;;;3.42;3.13;;;16.10;99.90;;;;;;2554815;23;20008;-69
2022/09/04 05:24:44;;;;;;;3.28;2.97;;;16.00;99.90;;;;;;2541721;23;20017;-69
2022/09/04 05:26:09;;;;;;;3.45;3.15;;;16.10;99.90;;;;;;2545644;23;19990;-69
2022/09/04 05:27:29;;;;;;;3.33;3.13;;;16.10;99.90;;;;;;2555239;23;20265;-69
2022/09/04 05:28:48;;;;;;;3.47;3.17;;;16.10;99.90;;;;;;2555526;23;20016;-69
2022/09/04 05:30:08;;;;;;;3.60;2.90;;;16.10;99.90;;;;;;2555351;23;20001;-69
2022/09/04 05:31:35;;;;;;;4.72;3.35;;;16.10;99.90;;;;;;2555433;23;20007;-77
2022/09/04 05:33:17;;;;;;;3.30;3.03;;;16.10;99.90;;;;;;2556989;23;20009;-78
2022/09/04 05:34:27;;;;;;;3.20;2.90;;;16.10;99.90;;;;;;2557492;23;20097;-78
2022/09/04 05:35:44;;;;;;;3.10;2.80;;;16.10;99.90;;;;;;2557064;23;20028;-78
2022/09/04 05:37:27;;;;;;;3.42;3.13;;;16.10;99.90;;;;;;2557336;23;20105;-77
2022/09/04 05:38:38;;;;;;;4.32;3.00;;;16.20;99.90;;;;;;2506807;23;20089;-77
2022/09/04 05:40:15;;;;;;;3.45;3.15;;;16.20;99.90;;;;;;2495070;23;20054;-78
2022/09/04 05:41:34;;;;;;;5.63;3.53;;;16.20;99.90;;;;;;2501956;23;20014;-78
2022/09/04 05:42:40;;;;;;;3.55;3.22;;;16.20;99.90;;;;;;2494893;23;20012;-78
2022/09/04 05:43:53;;;;;;;3.20;3.00;;;16.30;99.90;;;;;;2497380;23;20063;-77
2022/09/04 05:45:02;;;;;;;3.08;2.88;;;16.30;99.90;;;;;;2546443;23;20537;-78
2022/09/04 05:46:39;;;;;;;3.90;2.97;;;16.30;99.90;;;;;;2543514;23;20089;-77
2022/09/04 05:48:12;;;;;;;3.33;3.03;;;16.40;99.90;;;;;;2551310;23;20128;-78
2022/09/04 05:49:17;;;;;;;3.40;3.10;;;16.40;99.90;;;;;;2557157;23;20005;-78
2022/09/04 05:50:35;;;;;;;5.70;3.55;;;16.40;99.90;;;;;;2558046;23;20012;-78
2022/09/04 05:52:00;;;;;;;3.55;3.25;;;16.50;99.90;;;;;;2544865;23;20406;-78
2022/09/04 05:53:07;;;;;;;4.32;3.30;;;16.60;99.90;;;;;;2554593;23;20076;-78
2022/09/04 05:54:27;;;;;;;4.47;3.60;;;16.60;99.90;;;;;;2556145;23;20450;-77
2022/09/04 05:55:57;;;;;;;3.70;3.40;;;16.70;99.90;;;;;;2557465;23;20491;-78
2022/09/04 05:57:05;;;;;;;3.13;2.92;;;16.80;99.90;;;;;;2556948;23;20055;-78
2022/09/04 05:58:24;;;;;;;2.92;2.70;;;16.80;99.90;;;;;;2557255;23;20001;-78
2022/09/04 05:59:45;;;;;;;5.00;3.75;;;16.90;99.90;;;;;;2557899;23;20005;-78
2022/09/04 06:01:13;;;;;;;3.58;3.28;;;16.90;99.90;;;;;;2541318;23;20489;-78
2022/09/04 06:02:49;;;;;;;4.80;3.50;;;17.00;99.90;;;;;;2557681;23;20009;-78
2022/09/04 06:04:34;;;;;;;4.28;3.22;;;17.10;99.90;;;;;;2519506;23;20006;-78
2022/09/04 06:06:10;;;;;;;6.13;3.80;;;17.20;99.90;;;;;;2542005;23;20001;-78
2022/09/04 06:07:15;;;;;;;3.72;3.40;;;17.30;99.90;;;;;;2541038;23;20005;-78
2022/09/04 06:08:49;;;;;;;3.78;3.47;;;17.40;99.90;;;;;;2556749;23;20402;-78
2022/09/04 06:10:13;;;;;;;3.40;3.10;;;17.50;99.90;;;;;;2557619;23;19997;-78
2022/09/04 06:11:33;;;;;;;3.20;2.90;;;17.60;99.90;;;;;;2557495;23;20009;-78
2022/09/04 06:12:57;;;;;;;;;;;17.70;99.90;;;;;;2557581;23;20016;-78
2022/09/04 06:14:06;;;;;;;4.68;3.35;;;17.70;99.90;;;;;;2557658;23;20284;-78
2022/09/04 06:15:27;;;;;;;3.75;3.15;;;17.80;99.90;;;;;;2557540;23;19998;-78
2022/09/04 06:16:27;;;;;;;4.03;3.13;;;17.90;99.90;;;;;;2557182;23;20052;-78
2022/09/04 06:17:50;;;;;;;3.15;2.90;;;18.00;99.90;;;;;;2556441;23;20076;-78
2022/09/04 06:19:22;;;;;;;6.30;2.97;;;18.00;99.90;;;;;;2556724;23;20055;-78
2022/09/04 06:20:35;;;;;;;4.65;3.33;;;18.20;99.90;;;;;;2550695;23;20048;-79
2022/09/04 06:22:04;;;;;;;3.40;2.92;;;18.30;99.90;;;;;;2557404;23;19993;-78
2022/09/04 06:23:19;;;;;;;3.35;3.05;;;18.40;99.90;;;;;;2557023;23;20001;-78
2022/09/04 06:24:34;;;;;;;4.68;2.92;;;18.50;99.90;;;;;;2556706;23;20009;-78
2022/09/04 06:25:44;;;;;;;3.75;3.35;;;18.60;99.90;;;;;;2557641;23;20373;-78
2022/09/04 06:26:59;;;;;;;3.63;2.90;;;18.60;99.90;;;;;;2558964;23;20020;-78
2022/09/04 06:28:40;;;;;;;5.45;3.25;;;18.70;99.90;;;;;;2558159;23;20008;-79
2022/09/04 06:29:58;;;;;;;4.75;2.90;;;18.80;99.90;;;;;;2558510;23;20024;-78
2022/09/04 06:31:39;;;;;;;3.60;3.30;;;18.90;99.90;;;;;;2558360;23;19997;-78
2022/09/04 06:33:02;;;;;;;3.60;3.30;;;19.00;99.90;;;;;;2546106;23;20004;-78
2022/09/04 06:34:11;;;;;;;5.30;2.97;;;19.10;99.90;;;;;;2559189;23;20013;-78
2022/09/04 06:35:21;;;;;;;3.97;2.90;;;19.20;99.90;;;;;;2558518;23;20037;-78
2022/09/04 06:36:37;;;;;;;;;;;19.30;99.90;;;;;;2559112;23;20055;-79
2022/09/04 06:38:16;;;;;;;3.53;2.80;;;19.30;99.90;;;;;;2558188;23;19900;-78
2022/09/04 06:39:36;;;;;;;4.72;3.33;;;19.40;99.90;;;;;;2519093;23;20093;-78
2022/09/04 06:40:48;;;;;;;3.78;3.45;;;19.50;99.90;;;;;;2518810;23;20009;-79
2022/09/04 06:41:58;;;;;;;3.10;2.90;;;19.60;99.90;;;;;;2519075;23;20366;-78
2022/09/04 06:43:20;;;;;;;4.38;3.10;;;19.70;99.90;;;;;;2508022;23;20365;-78
2022/09/04 06:44:58;;;;;;;3.10;2.80;;;19.70;99.90;;;;;;2501208;23;20014;-78
2022/09/04 06:46:25;;;;;;;3.30;3.00;;;19.90;99.90;;;;;;2563527;23;20008;-79
2022/09/04 06:47:44;;;;;;;3.38;2.65;;;19.90;99.90;;;;;;2556066;23;20340;-78
2022/09/04 06:49:14;;;;;;;3.40;3.10;;;20.00;99.90;;;;;;2547404;23;20553;-78
2022/09/04 06:50:32;;;;;;;5.15;2.72;;;20.10;99.90;;;;;;2557240;23;20076;-78
2022/09/04 06:52:07;;;;;;;4.13;3.10;;;20.20;99.90;;;;;;2557419;23;20001;-78
2022/09/04 06:53:20;;;;;;;2.90;2.60;;;20.30;99.90;;;;;;2556477;23;20005;-78
2022/09/04 06:54:45;;;;;;;4.10;2.80;;;20.40;99.90;;;;;;2543783;23;19994;-78